createdAt,value
2023-03-01T00:00:37.844Z, 35.57
2023-03-01T00:01:37.852Z, 35.57
2023-03-01T00:02:37.877Z, 35.56
2023-03-01T00:03:37.923Z, 35.55
2023-03-01T00:04:37.869Z, 35.55
2023-03-01T00:05:37.869Z, 35.52
2023-03-01T00:06:37.906Z, 35.52
2023-03-01T00:07:37.912Z, 35.48
2023-03-01T00:08:37.907Z, 35.57
2023-03-01T00:09:37.945Z, 35.59
2023-03-01T00:10:37.925Z, 35.49
2023-03-01T00:11:37.972Z, 35.44
2023-03-01T00:12:37.982Z, 35.45
2023-03-01T00:13:37.995Z, 35.44
2023-03-01T00:14:38.014Z, 35.40
2023-03-01T00:15:37.972Z, 35.45
2023-03-01T00:16:38.065Z, 35.41
2023-03-01T00:17:38.017Z, 35.42
2023-03-01T00:18:38.012Z, 35.42
2023-03-01T00:19:38.021Z, 35.46
2023-03-01T00:20:38.050Z, 35.41
2023-03-01T00:21:38.037Z, 35.42
2023-03-01T00:22:38.031Z, 35.40
2023-03-01T00:23:38.052Z, 35.39
2023-03-01T00:24:38.055Z, 35.38
2023-03-01T00:25:38.077Z, 35.36
2023-03-01T00:26:38.076Z, 35.37
2023-03-01T00:27:38.149Z, 35.34
2023-03-01T00:28:38.121Z, 35.31
2023-03-01T00:29:38.153Z, 35.32
2023-03-01T00:30:38.311Z, 35.31
2023-03-01T00:31:38.150Z, 35.31
2023-03-01T00:32:38.137Z, 35.31
2023-03-01T00:33:38.201Z, 35.32
2023-03-01T00:34:38.231Z, 35.31
2023-03-01T00:35:38.321Z, 35.26
2023-03-01T00:36:38.240Z, 35.20
2023-03-01T00:37:38.243Z, 35.18
2023-03-01T00:38:38.212Z, 35.19
2023-03-01T00:39:38.224Z, 35.22
2023-03-01T00:40:38.269Z, 35.24
2023-03-01T00:41:38.267Z, 35.20
2023-03-01T00:42:38.285Z, 35.16
2023-03-01T00:43:38.316Z, 35.06
2023-03-01T00:44:38.273Z, 35.15
2023-03-01T00:45:38.274Z, 35.21
2023-03-01T00:46:38.336Z, 35.21
2023-03-01T00:47:38.279Z, 35.21
2023-03-01T00:48:38.348Z, 35.18
2023-03-01T00:49:38.372Z, 35.09
2023-03-01T00:50:38.317Z, 35.08
2023-03-01T00:51:38.311Z, 35.06
2023-03-01T00:52:38.350Z, 35.09
2023-03-01T00:53:38.332Z, 35.07
2023-03-01T00:54:38.325Z, 35.01
2023-03-01T00:55:38.508Z, 35.00
2023-03-01T00:56:38.326Z, 34.97
2023-03-01T00:57:38.339Z, 34.96
2023-03-01T00:58:38.509Z, 34.90
2023-03-01T00:59:38.356Z, 34.93
2023-03-01T01:00:38.357Z, 34.99
2023-03-01T01:01:38.397Z, 34.96
2023-03-01T01:02:38.435Z, 34.92
2023-03-01T01:03:38.440Z, 34.90
2023-03-01T01:04:38.467Z, 34.90
2023-03-01T01:05:38.433Z, 34.89
2023-03-01T01:06:38.526Z, 34.92
2023-03-01T01:07:38.431Z, 34.93
2023-03-01T01:08:38.431Z, 34.90
2023-03-01T01:09:38.434Z, 34.89
2023-03-01T01:10:38.432Z, 34.88
2023-03-01T01:11:38.521Z, 34.87
2023-03-01T01:12:38.485Z, 34.86
2023-03-01T01:13:38.483Z, 34.86
2023-03-01T01:14:38.545Z, 34.83
2023-03-01T01:15:38.580Z, 34.82
2023-03-01T01:16:38.542Z, 34.81
2023-03-01T01:17:38.517Z, 34.78
2023-03-01T01:18:38.519Z, 34.75
2023-03-01T01:19:38.559Z, 34.80
2023-03-01T01:20:38.586Z, 34.82
2023-03-01T01:21:38.558Z, 34.85
2023-03-01T01:22:38.651Z, 34.83
2023-03-01T01:23:38.648Z, 34.80
2023-03-01T01:24:38.629Z, 34.75
2023-03-01T01:25:38.665Z, 34.74
2023-03-01T01:26:38.642Z, 34.70
2023-03-01T01:27:38.631Z, 34.74
2023-03-01T01:28:38.631Z, 34.75
2023-03-01T01:29:38.630Z, 34.71
2023-03-01T01:30:38.637Z, 34.68
2023-03-01T01:31:38.646Z, 34.65
2023-03-01T01:32:38.644Z, 34.65
2023-03-01T01:33:38.642Z, 34.60
2023-03-01T01:34:38.729Z, 34.60
2023-03-01T01:35:38.747Z, 34.58
2023-03-01T01:36:38.696Z, 34.60
2023-03-01T01:37:38.697Z, 34.54
2023-03-01T01:38:38.703Z, 34.52
2023-03-01T01:39:38.710Z, 34.51
2023-03-01T01:40:38.768Z, 34.53
2023-03-01T01:41:38.745Z, 34.51
2023-03-01T01:42:38.751Z, 34.53
2023-03-01T01:43:38.754Z, 34.52
2023-03-01T01:44:38.823Z, 34.54
2023-03-01T01:45:38.819Z, 34.53
2023-03-01T01:46:38.853Z, 34.49
2023-03-01T01:47:38.805Z, 34.52
2023-03-01T01:48:38.802Z, 34.51
2023-03-01T01:49:38.807Z, 34.54
2023-03-01T01:50:38.831Z, 34.51
2023-03-01T01:51:38.831Z, 34.48
2023-03-01T01:52:38.879Z, 34.45
2023-03-01T01:53:38.883Z, 34.42
2023-03-01T01:54:38.890Z, 34.43
2023-03-01T01:55:38.958Z, 34.46
2023-03-01T01:56:38.940Z, 34.44
2023-03-01T01:57:38.933Z, 34.47
2023-03-01T01:58:38.945Z, 34.46
2023-03-01T01:59:38.923Z, 34.42
2023-03-01T02:00:38.927Z, 34.40
2023-03-01T02:01:38.922Z, 34.40
2023-03-01T02:02:39.010Z, 34.41
2023-03-01T02:03:39.080Z, 34.45
2023-03-01T02:04:38.984Z, 34.39
2023-03-01T02:05:38.973Z, 34.32
2023-03-01T02:06:39.011Z, 34.29
2023-03-01T02:07:39.003Z, 34.29
2023-03-01T02:08:39.006Z, 34.28
2023-03-01T02:09:39.002Z, 34.29
2023-03-01T02:10:39.041Z, 34.30
2023-03-01T02:11:39.019Z, 34.32
2023-03-01T02:12:39.026Z, 34.36
2023-03-01T02:13:39.079Z, 34.33
2023-03-01T02:14:39.087Z, 34.32
2023-03-01T02:15:39.074Z, 34.34
2023-03-01T02:16:39.138Z, 34.31
2023-03-01T02:17:39.082Z, 34.28
2023-03-01T02:18:39.083Z, 34.27
2023-03-01T02:19:39.075Z, 34.28
2023-03-01T02:20:39.101Z, 34.25
2023-03-01T02:21:39.155Z, 34.25
2023-03-01T02:22:39.143Z, 34.20
2023-03-01T02:23:39.173Z, 34.17
2023-03-01T02:24:39.163Z, 34.11
2023-03-01T02:25:39.159Z, 34.13
2023-03-01T02:26:39.152Z, 34.17
2023-03-01T02:27:39.158Z, 34.12
2023-03-01T02:28:39.222Z, 34.10
2023-03-01T02:29:39.238Z, 34.15
2023-03-01T02:30:39.230Z, 34.14
2023-03-01T02:31:39.272Z, 34.14
2023-03-01T02:32:39.274Z, 34.14
2023-03-01T02:33:39.307Z, 34.13
2023-03-01T02:34:39.246Z, 34.11
2023-03-01T02:35:39.363Z, 34.06
2023-03-01T02:36:39.292Z, 34.05
2023-03-01T02:37:39.293Z, 34.06
2023-03-01T02:38:39.314Z, 34.07
2023-03-01T02:39:39.338Z, 34.03
2023-03-01T02:40:39.353Z, 34.05
2023-03-01T02:41:39.313Z, 34.06
2023-03-01T02:42:39.313Z, 34.03
2023-03-01T02:43:39.316Z, 34.06
2023-03-01T02:44:39.384Z, 34.00
2023-03-01T02:45:39.380Z, 33.97
2023-03-01T02:46:39.382Z, 33.95
2023-03-01T02:47:39.402Z, 33.98
2023-03-01T02:48:39.412Z, 33.94
2023-03-01T02:49:39.380Z, 33.93
2023-03-01T02:50:39.401Z, 33.97
2023-03-01T02:51:39.394Z, 33.96
2023-03-01T02:52:41.139Z, 33.93
2023-03-01T02:53:39.424Z, 33.93
2023-03-01T02:54:39.455Z, 33.88
2023-03-01T02:55:39.507Z, 33.86
2023-03-01T02:56:39.497Z, 33.84
2023-03-01T02:57:39.493Z, 33.86
2023-03-01T02:58:39.491Z, 33.82
2023-03-01T02:59:39.480Z, 33.83
2023-03-01T03:00:39.528Z, 33.85
2023-03-01T03:01:39.524Z, 33.83
2023-03-01T03:02:39.560Z, 33.85
2023-03-01T03:03:39.632Z, 33.83
2023-03-01T03:04:39.536Z, 33.86
2023-03-01T03:05:39.544Z, 33.83
2023-03-01T03:06:39.639Z, 33.85
2023-03-01T03:07:39.601Z, 33.85
2023-03-01T03:08:39.696Z, 33.80
2023-03-01T03:09:39.621Z, 33.79
2023-03-01T03:10:39.617Z, 33.79
2023-03-01T03:11:39.610Z, 33.76
2023-03-01T03:12:39.659Z, 33.75
2023-03-01T03:13:39.668Z, 33.75
2023-03-01T03:14:39.674Z, 33.69
2023-03-01T03:15:39.700Z, 33.71
2023-03-01T03:16:39.747Z, 33.74
2023-03-01T03:17:39.708Z, 33.70
2023-03-01T03:18:39.707Z, 33.69
2023-03-01T03:19:39.701Z, 33.74
2023-03-01T03:20:39.696Z, 33.70
2023-03-01T03:21:39.731Z, 33.69
2023-03-01T03:22:39.709Z, 33.69
2023-03-01T03:23:39.761Z, 33.65
2023-03-01T03:24:39.772Z, 33.61
2023-03-01T03:25:39.746Z, 33.63
2023-03-01T03:26:39.804Z, 33.65
2023-03-01T03:27:39.771Z, 33.65
2023-03-01T03:28:39.766Z, 33.61
2023-03-01T03:29:39.768Z, 33.55
2023-03-01T03:30:39.772Z, 33.55
2023-03-01T03:31:39.915Z, 33.58
2023-03-01T03:32:39.831Z, 33.63
2023-03-01T03:33:39.826Z, 33.64
2023-03-01T03:34:39.826Z, 33.63
2023-03-01T03:35:39.854Z, 33.59
2023-03-01T03:36:39.833Z, 33.58
2023-03-01T03:37:39.842Z, 33.57
2023-03-01T03:38:39.852Z, 33.57
2023-03-01T03:39:39.867Z, 33.59
2023-03-01T03:40:39.951Z, 33.56
2023-03-01T03:41:39.946Z, 33.54
2023-03-01T03:42:39.984Z, 33.53
2023-03-01T03:43:40.012Z, 33.51
2023-03-01T03:44:40.045Z, 33.53
2023-03-01T03:45:40.039Z, 33.52
2023-03-01T03:46:40.000Z, 33.48
2023-03-01T03:47:40.034Z, 33.46
2023-03-01T03:48:39.989Z, 33.43
2023-03-01T03:49:39.994Z, 33.37
2023-03-01T03:50:40.038Z, 33.37
2023-03-01T03:51:40.026Z, 33.37
2023-03-01T03:52:40.025Z, 33.41
2023-03-01T03:53:40.037Z, 33.45
2023-03-01T03:54:40.088Z, 33.44
2023-03-01T03:55:40.184Z, 33.44
2023-03-01T03:56:40.140Z, 33.43
2023-03-01T03:57:40.085Z, 33.43
2023-03-01T03:58:40.117Z, 33.42
2023-03-01T03:59:40.093Z, 33.38
2023-03-01T04:00:40.134Z, 33.36
2023-03-01T04:01:40.119Z, 33.33
2023-03-01T04:02:40.189Z, 33.35
2023-03-01T04:03:40.164Z, 33.32
2023-03-01T04:04:40.205Z, 33.31
2023-03-01T04:05:40.207Z, 33.34
2023-03-01T04:06:40.203Z, 33.33
2023-03-01T04:07:40.188Z, 33.33
2023-03-01T04:08:40.184Z, 33.28
2023-03-01T04:09:40.192Z, 33.24
2023-03-01T04:10:40.183Z, 33.26
2023-03-01T04:11:40.181Z, 33.27
2023-03-01T04:12:40.195Z, 33.27
2023-03-01T04:13:40.211Z, 33.27
2023-03-01T04:14:40.232Z, 33.30
2023-03-01T04:15:40.245Z, 33.26
2023-03-01T04:16:40.314Z, 33.23
2023-03-01T04:17:40.279Z, 33.17
2023-03-01T04:18:40.327Z, 33.16
2023-03-01T04:19:40.364Z, 33.15
2023-03-01T04:20:40.378Z, 33.17
2023-03-01T04:21:40.359Z, 33.15
2023-03-01T04:22:40.345Z, 33.11
2023-03-01T04:23:40.352Z, 33.15
2023-03-01T04:24:40.361Z, 33.12
2023-03-01T04:25:40.349Z, 33.13
2023-03-01T04:26:40.344Z, 33.12
2023-03-01T04:27:40.343Z, 33.15
2023-03-01T04:28:40.358Z, 33.14
2023-03-01T04:29:40.433Z, 33.08
2023-03-01T04:30:40.421Z, 33.03
2023-03-01T04:31:40.481Z, 33.84
2023-03-01T04:32:40.434Z, 35.46
2023-03-01T04:33:40.470Z, 36.48
2023-03-01T04:34:40.465Z, 37.01
2023-03-01T04:35:40.577Z, 37.36
2023-03-01T04:36:40.597Z, 37.57
2023-03-01T04:37:40.468Z, 37.82
2023-03-01T04:38:40.473Z, 38.02
2023-03-01T04:39:40.465Z, 38.18
2023-03-01T04:40:40.505Z, 38.32
2023-03-01T04:41:40.550Z, 38.40
2023-03-01T04:42:40.545Z, 38.36
2023-03-01T04:43:40.519Z, 42.07
2023-03-01T04:44:40.513Z, 47.64
2023-03-01T04:45:40.619Z, 50.75
2023-03-01T04:46:40.528Z, 52.60
2023-03-01T04:47:40.538Z, 54.19
2023-03-01T04:48:40.594Z, 55.99
2023-03-01T04:49:40.596Z, 55.06
2023-03-01T04:50:40.568Z, 51.84
2023-03-01T04:51:40.587Z, 48.79
2023-03-01T04:52:40.584Z, 45.98
2023-03-01T04:53:40.666Z, 43.00
2023-03-01T04:54:40.616Z, 41.22
2023-03-01T04:55:40.627Z, 40.39
2023-03-01T04:56:40.653Z, 39.96
2023-03-01T04:57:40.637Z, 39.62
2023-03-01T04:58:40.710Z, 39.18
2023-03-01T04:59:40.650Z, 42.21
2023-03-01T05:00:40.654Z, 45.86
2023-03-01T05:01:40.656Z, 49.02
2023-03-01T05:02:40.683Z, 51.41
2023-03-01T05:03:43.210Z, 52.87
2023-03-01T05:04:40.739Z, 54.95
2023-03-01T05:05:40.778Z, 55.68
2023-03-01T05:06:40.747Z, 56.21
2023-03-01T05:07:40.725Z, 58.24
2023-03-01T05:08:40.726Z, 61.03
2023-03-01T05:09:40.791Z, 63.90
2023-03-01T05:10:40.780Z, 53.21
2023-03-01T05:11:40.781Z, 53.59
2023-03-01T05:12:40.807Z, 54.61
2023-03-01T05:13:40.836Z, 56.67
2023-03-01T05:14:40.849Z, 60.10
2023-03-01T05:15:40.867Z, 68.84
2023-03-01T05:16:40.833Z, 56.90
2023-03-01T05:17:40.835Z, 53.73
2023-03-01T05:18:40.884Z, 54.82
2023-03-01T05:19:40.845Z, 56.27
2023-03-01T05:20:40.942Z, 59.39
2023-03-01T05:21:40.941Z, 68.66
2023-03-01T05:22:40.920Z, 59.96
2023-03-01T05:23:40.916Z, 53.88
2023-03-01T05:24:40.946Z, 54.76
2023-03-01T05:25:40.944Z, 55.77
2023-03-01T05:26:41.337Z, 56.67
2023-03-01T05:27:40.933Z, 57.24
2023-03-01T05:28:40.942Z, 59.06
2023-03-01T05:29:40.954Z, 58.58
2023-03-01T05:30:40.950Z, 57.01
2023-03-01T05:31:40.974Z, 55.33
2023-03-01T05:32:40.974Z, 53.98
2023-03-01T05:33:41.006Z, 52.77
2023-03-01T05:34:41.010Z, 51.59
2023-03-01T05:35:41.102Z, 50.45
2023-03-01T05:36:41.013Z, 49.25
2023-03-01T05:37:41.089Z, 48.02
2023-03-01T05:38:41.090Z, 46.85
2023-03-01T05:39:41.066Z, 45.77
2023-03-01T05:40:41.078Z, 46.97
2023-03-01T05:41:41.070Z, 51.93
2023-03-01T05:42:41.062Z, 56.07
2023-03-01T05:43:41.097Z, 57.49
2023-03-01T05:44:41.153Z, 56.60
2023-03-01T05:45:41.161Z, 55.52
2023-03-01T05:46:41.134Z, 54.47
2023-03-01T05:47:41.161Z, 53.28
2023-03-01T05:48:41.144Z, 52.34
2023-03-01T05:49:41.148Z, 51.75
2023-03-01T05:50:41.145Z, 51.08
2023-03-01T05:51:41.203Z, 50.46
2023-03-01T05:52:41.199Z, 49.84
2023-03-01T05:53:41.216Z, 49.27
2023-03-01T05:54:41.214Z, 48.68
2023-03-01T05:55:41.203Z, 48.04
2023-03-01T05:56:41.208Z, 47.37
2023-03-01T05:57:41.218Z, 46.60
2023-03-01T05:58:41.211Z, 47.13
2023-03-01T05:59:41.227Z, 52.98
2023-03-01T06:00:41.294Z, 57.54
2023-03-01T06:01:41.281Z, 58.24
2023-03-01T06:02:41.264Z, 57.41
2023-03-01T06:03:41.266Z, 56.60
2023-03-01T06:04:41.375Z, 56.37
2023-03-01T06:05:41.461Z, 57.59
2023-03-01T06:06:41.276Z, 59.01
2023-03-01T06:07:41.288Z, 60.95
2023-03-01T06:08:41.302Z, 65.15
2023-03-01T06:09:41.307Z, 54.00
2023-03-01T06:10:41.327Z, 54.07
2023-03-01T06:11:41.346Z, 55.11
2023-03-01T06:12:41.347Z, 57.36
2023-03-01T06:13:41.401Z, 60.41
2023-03-01T06:14:41.390Z, 67.55
2023-03-01T06:15:41.413Z, 55.88
2023-03-01T06:16:41.412Z, 53.72
2023-03-01T06:17:41.420Z, 54.95
2023-03-01T06:18:41.466Z, 55.84
2023-03-01T06:19:41.436Z, 56.22
2023-03-01T06:20:41.453Z, 56.63
2023-03-01T06:21:41.433Z, 56.85
2023-03-01T06:22:41.457Z, 56.96
2023-03-01T06:23:41.438Z, 56.97
2023-03-01T06:24:41.462Z, 56.89
2023-03-01T06:25:41.474Z, 56.77
2023-03-01T06:26:41.472Z, 56.67
2023-03-01T06:27:41.493Z, 56.71
2023-03-01T06:28:41.537Z, 56.66
2023-03-01T06:29:42.704Z, 56.56
2023-03-01T06:30:41.506Z, 56.42
2023-03-01T06:31:41.526Z, 56.30
2023-03-01T06:32:41.585Z, 56.08
2023-03-01T06:33:41.559Z, 55.84
2023-03-01T06:34:41.637Z, 55.70
2023-03-01T06:35:41.671Z, 55.51
2023-03-01T06:36:41.636Z, 55.26
2023-03-01T06:37:41.615Z, 55.06
2023-03-01T06:38:41.759Z, 54.92
2023-03-01T06:39:41.607Z, 54.65
2023-03-01T06:40:41.611Z, 54.50
2023-03-01T06:41:41.622Z, 54.38
2023-03-01T06:42:41.680Z, 54.16
2023-03-01T06:43:41.713Z, 53.97
2023-03-01T06:44:41.697Z, 53.74
2023-03-01T06:45:41.692Z, 53.58
2023-03-01T06:46:41.741Z, 53.42
2023-03-01T06:47:41.728Z, 53.28
2023-03-01T06:48:41.764Z, 53.04
2023-03-01T06:49:41.774Z, 52.90
2023-03-01T06:50:41.909Z, 52.71
2023-03-01T06:51:41.827Z, 52.57
2023-03-01T06:52:41.841Z, 52.42
2023-03-01T06:53:41.798Z, 52.28
2023-03-01T06:54:41.793Z, 52.13
2023-03-01T06:55:41.790Z, 51.98
2023-03-01T06:56:41.838Z, 51.86
2023-03-01T06:57:41.822Z, 51.73
2023-03-01T06:58:41.829Z, 51.60
2023-03-01T06:59:41.814Z, 51.49
2023-03-01T07:00:42.072Z, 51.27
2023-03-01T07:01:41.838Z, 51.16
2023-03-01T07:02:41.899Z, 51.02
2023-03-01T07:03:41.897Z, 50.84
2023-03-01T07:04:41.854Z, 50.75
2023-03-01T07:05:41.895Z, 50.74
2023-03-01T07:06:41.921Z, 50.60
2023-03-01T07:07:41.936Z, 50.47
2023-03-01T07:08:41.919Z, 50.23
2023-03-01T07:09:41.929Z, 50.19
2023-03-01T07:10:41.979Z, 50.04
2023-03-01T07:11:41.969Z, 49.96
2023-03-01T07:12:41.996Z, 49.86
2023-03-01T07:13:41.991Z, 49.75
2023-03-01T07:14:41.973Z, 49.69
2023-03-01T07:15:42.100Z, 49.71
2023-03-01T07:16:42.011Z, 49.62
2023-03-01T07:17:42.021Z, 49.48
2023-03-01T07:18:42.019Z, 49.39
2023-03-01T07:19:42.026Z, 49.30
2023-03-01T07:20:42.058Z, 49.21
2023-03-01T07:21:42.087Z, 49.09
2023-03-01T07:22:42.126Z, 49.02
2023-03-01T07:23:42.120Z, 48.99
2023-03-01T07:24:42.152Z, 48.93
2023-03-01T07:25:42.130Z, 48.73
2023-03-01T07:26:42.119Z, 48.71
2023-03-01T07:27:42.128Z, 48.63
2023-03-01T07:28:42.159Z, 48.58
2023-03-01T07:29:42.121Z, 48.56
2023-03-01T07:30:42.121Z, 48.46
2023-03-01T07:31:42.116Z, 48.33
2023-03-01T07:32:42.251Z, 48.27
2023-03-01T07:33:42.276Z, 48.13
2023-03-01T07:34:42.276Z, 48.13
2023-03-01T07:35:42.338Z, 48.12
2023-03-01T07:36:42.188Z, 47.97
2023-03-01T07:37:42.187Z, 47.86
2023-03-01T07:38:42.268Z, 47.79
2023-03-01T07:39:42.233Z, 47.78
2023-03-01T07:40:42.265Z, 47.68
2023-03-01T07:41:42.249Z, 47.66
2023-03-01T07:42:42.309Z, 47.55
2023-03-01T07:43:42.283Z, 47.49
2023-03-01T07:44:42.274Z, 47.51
2023-03-01T07:45:42.324Z, 47.48
2023-03-01T07:46:42.296Z, 47.41
2023-03-01T07:47:42.337Z, 47.43
2023-03-01T07:48:42.367Z, 47.37
2023-03-01T07:49:42.352Z, 47.30
2023-03-01T07:50:42.384Z, 47.29
2023-03-01T07:51:42.347Z, 47.21
2023-03-01T07:52:42.333Z, 47.13
2023-03-01T07:53:42.388Z, 47.21
2023-03-01T07:54:42.393Z, 47.10
2023-03-01T07:55:42.386Z, 47.00
2023-03-01T07:56:42.387Z, 46.98
2023-03-01T07:57:42.380Z, 46.99
2023-03-01T07:58:42.436Z, 46.88
2023-03-01T07:59:42.391Z, 46.90
2023-03-01T08:00:42.430Z, 46.85
2023-03-01T08:01:42.498Z, 46.74
2023-03-01T08:02:42.537Z, 46.73
2023-03-01T08:03:42.570Z, 46.67
2023-03-01T08:04:42.552Z, 46.66
2023-03-01T08:05:42.534Z, 46.55
2023-03-01T08:06:42.576Z, 46.54
2023-03-01T08:07:42.548Z, 46.50
2023-03-01T08:08:42.552Z, 46.47
2023-03-01T08:09:42.544Z, 46.38
2023-03-01T08:10:42.547Z, 46.37
2023-03-01T08:11:42.570Z, 46.24
2023-03-01T08:12:42.536Z, 46.23
2023-03-01T08:13:42.547Z, 46.19
2023-03-01T08:14:42.545Z, 46.17
2023-03-01T08:15:42.580Z, 46.04
2023-03-01T08:16:42.601Z, 45.96
2023-03-01T08:17:42.613Z, 45.93
2023-03-01T08:18:42.599Z, 45.87
2023-03-01T08:19:42.602Z, 45.84
2023-03-01T08:20:42.628Z, 45.76
2023-03-01T08:21:42.691Z, 45.77
2023-03-01T08:22:42.655Z, 45.71
2023-03-01T08:23:42.650Z, 45.62
2023-03-01T08:24:42.713Z, 45.53
2023-03-01T08:25:42.738Z, 45.57
2023-03-01T08:26:42.717Z, 45.54
2023-03-01T08:27:42.709Z, 45.47
2023-03-01T08:28:42.734Z, 45.50
2023-03-01T08:29:42.777Z, 45.43
2023-03-01T08:30:42.742Z, 45.36
2023-03-01T08:31:42.820Z, 45.40
2023-03-01T08:32:42.914Z, 45.30
2023-03-01T08:33:42.752Z, 45.21
2023-03-01T08:34:42.806Z, 45.14
2023-03-01T08:35:42.816Z, 45.10
2023-03-01T08:36:42.786Z, 45.10
2023-03-01T08:37:42.794Z, 45.00
2023-03-01T08:38:42.812Z, 44.99
2023-03-01T08:39:42.854Z, 44.97
2023-03-01T08:40:42.892Z, 44.91
2023-03-01T08:41:42.903Z, 44.83
2023-03-01T08:42:42.933Z, 44.89
2023-03-01T08:43:42.899Z, 44.82
2023-03-01T08:44:44.351Z, 44.85
2023-03-01T08:45:42.957Z, 44.77
2023-03-01T08:46:42.926Z, 44.63
2023-03-01T08:47:42.936Z, 44.60
2023-03-01T08:48:42.923Z, 44.58
2023-03-01T08:49:42.918Z, 44.63
2023-03-01T08:50:42.972Z, 44.60
2023-03-01T08:51:43.008Z, 44.51
2023-03-01T08:52:42.987Z, 44.46
2023-03-01T08:53:42.986Z, 44.36
2023-03-01T08:54:42.988Z, 44.40
2023-03-01T08:55:42.995Z, 44.38
2023-03-01T08:56:43.082Z, 44.27
2023-03-01T08:57:43.041Z, 44.25
2023-03-01T08:58:43.058Z, 44.23
2023-03-01T08:59:43.044Z, 44.18
2023-03-01T09:00:43.046Z, 44.11
2023-03-01T09:01:43.092Z, 44.17
2023-03-01T09:02:43.075Z, 44.10
2023-03-01T09:03:43.071Z, 44.03
2023-03-01T09:04:43.087Z, 44.04
2023-03-01T09:05:43.142Z, 44.03
2023-03-01T09:06:43.168Z, 43.98
2023-03-01T09:07:43.126Z, 43.96
2023-03-01T09:08:43.143Z, 43.88
2023-03-01T09:09:43.143Z, 43.90
2023-03-01T09:10:43.150Z, 43.82
2023-03-01T09:11:43.144Z, 43.94
2023-03-01T09:12:43.185Z, 43.81
2023-03-01T09:13:44.333Z, 43.70
2023-03-01T09:14:43.227Z, 43.76
2023-03-01T09:15:43.230Z, 43.66
2023-03-01T09:16:43.302Z, 43.64
2023-03-01T09:17:43.249Z, 43.58
2023-03-01T09:18:43.316Z, 43.67
2023-03-01T09:19:43.245Z, 43.62
2023-03-01T09:20:43.257Z, 43.59
2023-03-01T09:21:43.246Z, 43.64
2023-03-01T09:22:43.280Z, 43.68
2023-03-01T09:23:43.295Z, 43.55
2023-03-01T09:24:43.370Z, 43.49
2023-03-01T09:25:43.337Z, 43.49
2023-03-01T09:26:43.334Z, 43.44
2023-03-01T09:27:43.354Z, 43.44
2023-03-01T09:28:43.400Z, 43.37
2023-03-01T09:29:43.400Z, 43.30
2023-03-01T09:30:43.474Z, 43.29
2023-03-01T09:31:43.418Z, 43.26
2023-03-01T09:32:43.495Z, 43.14
2023-03-01T09:33:43.409Z, 43.17
2023-03-01T09:34:43.470Z, 43.14
2023-03-01T09:35:43.511Z, 43.07
2023-03-01T09:36:43.448Z, 43.05
2023-03-01T09:37:43.478Z, 43.02
2023-03-01T09:38:43.451Z, 43.04
2023-03-01T09:39:43.454Z, 43.03
2023-03-01T09:40:43.481Z, 42.96
2023-03-01T09:41:43.487Z, 43.04
2023-03-01T09:42:43.540Z, 42.96
2023-03-01T09:43:44.546Z, 42.87
2023-03-01T09:44:43.551Z, 42.89
2023-03-01T09:45:43.541Z, 42.88
2023-03-01T09:46:43.519Z, 42.81
2023-03-01T09:47:43.526Z, 42.70
2023-03-01T09:48:43.527Z, 42.71
2023-03-01T09:49:43.536Z, 42.72
2023-03-01T09:50:43.534Z, 42.66
2023-03-01T09:51:43.570Z, 42.68
2023-03-01T09:52:43.582Z, 42.66
2023-03-01T09:53:43.598Z, 42.68
2023-03-01T09:54:43.688Z, 42.63
2023-03-01T09:55:43.664Z, 42.57
2023-03-01T09:56:43.656Z, 42.58
2023-03-01T09:57:43.638Z, 42.52
2023-03-01T09:58:43.631Z, 42.42
2023-03-01T09:59:43.631Z, 42.49
2023-03-01T10:00:43.677Z, 42.48
2023-03-01T10:01:43.679Z, 42.41
2023-03-01T10:02:43.659Z, 42.36
2023-03-01T10:03:43.671Z, 42.37
2023-03-01T10:04:43.773Z, 42.35
2023-03-01T10:05:43.702Z, 42.31
2023-03-01T10:06:43.737Z, 42.24
2023-03-01T10:07:43.771Z, 42.21
2023-03-01T10:08:43.771Z, 42.19
2023-03-01T10:09:43.787Z, 42.15
2023-03-01T10:10:43.762Z, 42.13
2023-03-01T10:11:43.773Z, 42.14
2023-03-01T10:12:43.814Z, 42.09
2023-03-01T10:13:43.828Z, 42.09
2023-03-01T10:14:43.808Z, 42.09
2023-03-01T10:15:43.842Z, 41.95
2023-03-01T10:16:43.813Z, 41.95
2023-03-01T10:17:43.826Z, 41.93
2023-03-01T10:18:43.812Z, 41.93
2023-03-01T10:19:43.840Z, 41.92
2023-03-01T10:20:43.870Z, 41.89
2023-03-01T10:21:43.864Z, 41.80
2023-03-01T10:22:43.853Z, 41.79
2023-03-01T10:23:43.857Z, 41.84
2023-03-01T10:24:43.856Z, 41.75
2023-03-01T10:25:43.863Z, 41.72
2023-03-01T10:26:43.878Z, 41.71
2023-03-01T10:27:43.937Z, 41.66
2023-03-01T10:28:43.932Z, 41.61
2023-03-01T10:29:43.961Z, 41.54
2023-03-01T10:30:44.035Z, 41.61
2023-03-01T10:31:44.080Z, 41.58
2023-03-01T10:32:43.984Z, 41.52
2023-03-01T10:33:44.032Z, 41.53
2023-03-01T10:34:44.000Z, 41.56
2023-03-01T10:35:44.039Z, 41.53
2023-03-01T10:36:44.062Z, 41.49
2023-03-01T10:37:44.048Z, 41.54
2023-03-01T10:38:44.034Z, 41.51
2023-03-01T10:39:44.071Z, 41.50
2023-03-01T10:40:44.040Z, 41.40
2023-03-01T10:41:44.088Z, 41.44
2023-03-01T10:42:44.078Z, 41.37
2023-03-01T10:43:44.090Z, 41.33
2023-03-01T10:44:44.114Z, 41.26
2023-03-01T10:45:44.120Z, 41.25
2023-03-01T10:46:44.255Z, 41.21
2023-03-01T10:47:44.144Z, 41.24
2023-03-01T10:48:44.148Z, 41.20
2023-03-01T10:49:44.156Z, 41.13
2023-03-01T10:50:44.237Z, 41.09
2023-03-01T10:51:44.217Z, 41.12
2023-03-01T10:52:44.211Z, 41.11
2023-03-01T10:53:44.214Z, 41.04
2023-03-01T10:54:44.207Z, 41.04
2023-03-01T10:55:44.211Z, 41.08
2023-03-01T10:56:44.234Z, 41.06
2023-03-01T10:57:44.210Z, 41.10
2023-03-01T10:58:44.215Z, 40.94
2023-03-01T10:59:44.208Z, 40.93
2023-03-01T11:00:44.215Z, 40.92
2023-03-01T11:01:44.273Z, 42.45
2023-03-01T11:02:44.220Z, 43.25
2023-03-01T11:03:44.230Z, 43.45
2023-03-01T11:04:44.361Z, 43.37
2023-03-01T11:05:44.342Z, 42.89
2023-03-01T11:06:44.305Z, 41.38
2023-03-01T11:07:44.368Z, 40.16
2023-03-01T11:08:44.338Z, 39.31
2023-03-01T11:09:44.332Z, 38.66
2023-03-01T11:10:44.370Z, 41.99
2023-03-01T11:11:44.345Z, 46.49
2023-03-01T11:12:44.332Z, 49.84
2023-03-01T11:13:44.331Z, 49.86
2023-03-01T11:14:44.346Z, 47.88
2023-03-01T11:15:44.408Z, 45.76
2023-03-01T11:16:44.363Z, 43.79
2023-03-01T11:17:54.482Z, 41.88
2023-03-01T11:18:47.443Z, 39.57
2023-03-01T11:19:54.245Z, 37.77
2023-03-01T11:20:44.448Z, 36.88
2023-03-01T11:21:44.437Z, 36.43
2023-03-01T11:22:44.439Z, 36.13
2023-03-01T11:23:44.434Z, 35.79
2023-03-01T11:24:44.443Z, 35.16
2023-03-01T11:25:44.475Z, 35.53
2023-03-01T11:26:44.521Z, 40.43
2023-03-01T11:27:44.519Z, 45.03
2023-03-01T11:28:44.514Z, 48.56
2023-03-01T11:29:48.738Z, 50.90
2023-03-01T11:30:44.546Z, 51.15
2023-03-01T11:31:57.283Z, 51.69
2023-03-01T11:32:44.664Z, 51.39
2023-03-01T11:33:44.612Z, 50.73
2023-03-01T11:34:44.603Z, 50.11
2023-03-01T11:35:44.575Z, 49.67
2023-03-01T11:36:44.597Z, 49.38
2023-03-01T11:37:44.636Z, 49.06
2023-03-01T11:38:44.605Z, 48.78
2023-03-01T11:39:44.601Z, 48.53
2023-03-01T11:40:44.678Z, 48.32
2023-03-01T11:41:44.640Z, 48.09
2023-03-01T11:42:44.682Z, 47.87
2023-03-01T11:43:44.656Z, 47.68
2023-03-01T11:44:44.654Z, 47.48
2023-03-01T11:45:44.736Z, 47.28
2023-03-01T11:46:44.804Z, 47.12
2023-03-01T11:47:44.864Z, 46.96
2023-03-01T11:48:49.844Z, 46.77
2023-03-01T11:49:44.762Z, 46.59
2023-03-01T11:50:44.735Z, 46.40
2023-03-01T11:51:44.725Z, 46.25
2023-03-01T11:52:44.725Z, 46.04
2023-03-01T11:53:44.725Z, 45.89
2023-03-01T11:54:44.803Z, 45.76
2023-03-01T11:55:44.772Z, 45.60
2023-03-01T11:56:44.783Z, 45.51
2023-03-01T11:57:44.772Z, 45.38
2023-03-01T11:58:44.770Z, 45.23
2023-03-01T11:59:44.778Z, 45.09
2023-03-01T12:00:44.787Z, 44.95
2023-03-01T12:01:44.988Z, 44.80
2023-03-01T12:02:44.835Z, 44.63
2023-03-01T12:03:44.837Z, 44.51
2023-03-01T12:04:44.911Z, 44.37
2023-03-01T12:05:44.844Z, 44.32
2023-03-01T12:06:44.920Z, 44.20
2023-03-01T12:07:44.887Z, 44.07
2023-03-01T12:08:44.889Z, 43.91
2023-03-01T12:09:44.903Z, 43.83
2023-03-01T12:10:44.971Z, 43.68
2023-03-01T12:11:45.078Z, 43.55
2023-03-01T12:12:44.948Z, 43.42
2023-03-01T12:13:44.938Z, 43.29
2023-03-01T12:14:44.940Z, 43.25
2023-03-01T12:15:44.940Z, 43.15
2023-03-01T12:16:44.984Z, 43.08
2023-03-01T12:17:44.947Z, 43.02
2023-03-01T12:18:44.996Z, 42.88
2023-03-01T12:19:44.988Z, 42.78
2023-03-01T12:20:45.018Z, 42.70
2023-03-01T12:21:45.044Z, 42.56
2023-03-01T12:22:45.061Z, 42.54
2023-03-01T12:23:45.095Z, 42.39
2023-03-01T12:24:45.054Z, 42.33
2023-03-01T12:25:45.058Z, 42.26
2023-03-01T12:26:45.056Z, 42.14
2023-03-01T12:27:45.057Z, 42.10
2023-03-01T12:28:45.063Z, 41.98